Terminal Aerodrome Forecast
Issued by NWS

Home | Current Version | Previous Version | Text Only | Print | Product List | Glossary Off
Versions: 1 2 3 4 5 6 7 8 9 10 11 12 13 14 15

138
FTUS43 KTOP 221120
TAFFOE
TAF
KFOE 221120Z 2212/2312 21010KT P6SM SKC WS010/24040KT
     FM221400 24010KT P6SM SKC
     FM222300 04006KT P6SM VCTS SCT080CB
      TEMPO 2300/2304 3SM TSRA BKN050CB
     FM230900 07003KT P6SM BKN070=

USA.gov is the U.S. government's official web portal to all federal, state and local government web resources and services.